createdAt,value
2023-05-01T00:02:10.620Z,76.33
2023-05-01T00:04:37.630Z,75.88
2023-05-01T00:07:04.768Z,76.62
2023-05-01T00:09:32.344Z,76.74
2023-05-01T00:11:59.238Z,77.44
2023-05-01T00:14:26.049Z,77.07
2023-05-01T00:16:53.034Z,77.33
2023-05-01T00:19:20.176Z,77.48
2023-05-01T00:21:48.457Z,76.88
2023-05-01T00:24:17.349Z,77.69
2023-05-01T00:26:47.062Z,77.11
2023-05-01T00:29:14.417Z,77.39
2023-05-01T00:31:42.750Z,76.49
2023-05-01T00:34:11.622Z,76.24
2023-05-01T00:36:38.798Z,75.96
2023-05-01T00:39:07.954Z,76.39
2023-05-01T00:41:37.721Z,77.46
2023-05-01T00:44:04.916Z,76.52
2023-05-01T00:46:32.493Z,75.91
2023-05-01T00:49:00.073Z,74.76
2023-05-01T00:51:29.434Z,74.24
2023-05-01T00:53:56.670Z,73.95
2023-05-01T00:56:23.527Z,74.98
2023-05-01T00:58:54.196Z,74.61
2023-05-01T01:01:21.934Z,74.10
2023-05-01T01:03:49.301Z,75.21
2023-05-01T01:06:33.591Z,75.46
2023-05-01T01:09:09.246Z,75.51
2023-05-01T01:11:51.528Z,75.76
2023-05-01T01:14:25.198Z,74.89
2023-05-01T01:16:57.573Z,74.99
2023-05-01T01:19:42.830Z,75.32
2023-05-01T01:22:15.493Z,74.92
2023-05-01T01:25:16.022Z,75.51
2023-05-01T01:28:23.341Z,75.59
2023-05-01T01:31:14.364Z,74.93
2023-05-01T01:33:49.255Z,75.20
2023-05-01T01:36:20.428Z,74.98
2023-05-01T01:39:12.007Z,75.05
2023-05-01T01:41:41.530Z,74.34
2023-05-01T01:44:15.945Z,74.64
2023-05-01T01:46:43.278Z,74.75
2023-05-01T01:49:20.256Z,75.18
2023-05-01T01:51:50.103Z,74.38
2023-05-01T01:54:26.699Z,74.16
2023-05-01T01:56:55.426Z,74.44
2023-05-01T01:59:24.482Z,75.18
2023-05-01T02:01:53.625Z,74.99
2023-05-01T02:04:22.387Z,75.08
2023-05-01T02:06:50.074Z,75.39
2023-05-01T02:09:19.564Z,74.84
2023-05-01T02:11:47.183Z,74.41
2023-05-01T02:14:16.369Z,74.53
2023-05-01T02:16:45.147Z,74.05
2023-05-01T02:19:14.822Z,74.77
2023-05-01T02:21:42.906Z,72.99
2023-05-01T02:24:12.332Z,73.24
2023-05-01T02:26:49.252Z,72.87
2023-05-01T02:29:16.241Z,73.44
2023-05-01T02:31:43.939Z,73.04
2023-05-01T02:34:11.572Z,73.76
2023-05-01T02:36:38.474Z,73.83
2023-05-01T02:39:05.741Z,74.00
2023-05-01T02:41:35.298Z,73.72
2023-05-01T02:44:05.895Z,74.48
2023-05-01T02:46:36.989Z,73.32
2023-05-01T02:49:06.030Z,73.38
2023-05-01T02:51:35.053Z,74.30
2023-05-01T02:54:03.395Z,74.61
2023-05-01T02:56:31.570Z,74.98
2023-05-01T02:58:58.515Z,75.47
2023-05-01T03:01:26.013Z,74.98
2023-05-01T03:03:53.064Z,73.89
2023-05-01T03:06:20.123Z,73.63
2023-05-01T03:08:47.935Z,73.55
2023-05-01T03:11:15.741Z,73.54
2023-05-01T03:13:42.602Z,74.44
2023-05-01T03:16:09.538Z,75.67
2023-05-01T03:18:36.639Z,76.67
2023-05-01T03:21:03.867Z,76.37
2023-05-01T03:23:31.664Z,76.84
2023-05-01T03:25:59.583Z,76.34
2023-05-01T03:28:26.532Z,75.98
2023-05-01T03:30:53.602Z,76.12
2023-05-01T03:33:20.630Z,76.21
2023-05-01T03:35:48.089Z,75.85
2023-05-01T03:38:18.091Z,75.74
2023-05-01T03:41:05.443Z,75.36
2023-05-01T03:43:51.161Z,75.94
2023-05-01T03:46:38.484Z,76.54
2023-05-01T03:49:07.640Z,76.30
2023-05-01T03:51:42.519Z,76.49
2023-05-01T03:54:09.337Z,76.31
2023-05-01T03:56:51.961Z,76.93
2023-05-01T03:59:19.983Z,77.33
2023-05-01T04:01:46.827Z,77.38
2023-05-01T04:04:14.097Z,77.26
2023-05-01T04:06:44.833Z,77.07
2023-05-01T04:09:12.446Z,77.10
2023-05-01T04:11:39.244Z,76.46
2023-05-01T04:14:06.157Z,76.92
2023-05-01T04:16:36.154Z,76.50
2023-05-01T04:19:03.672Z,75.95
2023-05-01T04:21:32.945Z,75.83
2023-05-01T04:24:00.126Z,76.15
2023-05-01T04:26:29.763Z,76.25
2023-05-01T04:28:56.624Z,76.31
2023-05-01T04:31:25.743Z,75.48
2023-05-01T04:33:52.932Z,75.21
2023-05-01T04:36:20.385Z,75.23
2023-05-01T04:38:47.293Z,74.83
2023-05-01T04:41:14.307Z,75.91
2023-05-01T04:43:41.199Z,76.03
2023-05-01T04:46:08.918Z,76.15
2023-05-01T04:48:36.401Z,74.92
2023-05-01T04:51:04.222Z,74.61
2023-05-01T04:53:33.980Z,74.66
2023-05-01T04:56:02.525Z,74.32
2023-05-01T04:58:31.023Z,73.83
2023-05-01T05:01:03.131Z,72.80
2023-05-01T05:03:30.146Z,72.38
2023-05-01T05:05:57.609Z,73.04
2023-05-01T05:08:24.503Z,73.30
2023-05-01T05:11:01.363Z,73.78
2023-05-01T05:13:37.541Z,73.70
2023-05-01T05:16:11.052Z,72.42
2023-05-01T05:18:39.013Z,72.19
2023-05-01T05:21:06.905Z,70.20
2023-05-01T05:23:33.877Z,70.61
2023-05-01T05:26:04.066Z,71.21
2023-05-01T05:28:31.553Z,71.12
2023-05-01T05:30:58.987Z,70.34
2023-05-01T05:33:27.322Z,70.50
2023-05-01T05:35:55.241Z,70.49
2023-05-01T05:38:26.150Z,69.49
2023-05-01T05:40:56.308Z,69.89
2023-05-01T05:43:26.604Z,69.78
2023-05-01T05:45:59.320Z,71.25
2023-05-01T05:48:27.887Z,71.36
2023-05-01T05:50:55.095Z,70.42
2023-05-01T05:53:24.278Z,71.51
2023-05-01T05:55:53.413Z,70.06
2023-05-01T05:58:20.387Z,71.24
2023-05-01T06:00:56.123Z,71.39
2023-05-01T06:03:23.717Z,72.16
2023-05-01T06:05:53.639Z,71.80
2023-05-01T06:08:20.590Z,71.65
2023-05-01T06:10:48.091Z,71.71
2023-05-01T06:13:15.612Z,71.29
2023-05-01T06:15:46.207Z,69.08
2023-05-01T06:18:13.337Z,68.77
2023-05-01T06:20:40.597Z,68.22
2023-05-01T06:23:10.191Z,66.36
2023-05-01T06:26:10.914Z,66.46
2023-05-01T06:28:38.000Z,68.66
2023-05-01T06:31:05.700Z,68.22
2023-05-01T06:33:36.935Z,69.11
2023-05-01T06:36:15.608Z,68.25
2023-05-01T06:38:48.687Z,68.30
2023-05-01T06:41:17.038Z,65.99
2023-05-01T06:43:45.242Z,66.78
2023-05-01T06:46:12.657Z,64.91
2023-05-01T06:48:39.615Z,64.69
2023-05-01T06:51:06.525Z,64.92
2023-05-01T06:53:33.450Z,63.81
2023-05-01T06:56:00.403Z,62.57
2023-05-01T06:58:27.372Z,61.49
2023-05-01T07:00:54.723Z,60.45
2023-05-01T07:03:24.772Z,60.34
2023-05-01T07:05:51.605Z,60.06
2023-05-01T07:08:18.387Z,59.93
2023-05-01T07:10:45.424Z,59.05
2023-05-01T07:13:12.311Z,57.76
2023-05-01T07:15:39.177Z,56.80
2023-05-01T07:18:06.283Z,56.89
2023-05-01T07:20:34.203Z,56.34
2023-05-01T07:23:01.064Z,56.24
2023-05-01T07:25:28.032Z,55.00
2023-05-01T07:27:55.058Z,51.78
2023-05-01T07:30:22.022Z,53.97
2023-05-01T07:32:49.050Z,54.55
2023-05-01T07:35:15.945Z,52.51
2023-05-01T07:37:43.084Z,54.46
2023-05-01T07:40:10.443Z,55.93
2023-05-01T07:42:37.240Z,51.08
2023-05-01T07:45:04.371Z,50.88
2023-05-01T07:47:31.203Z,49.83
2023-05-01T07:49:58.499Z,49.42
2023-05-01T07:52:26.281Z,47.16
2023-05-01T07:54:53.468Z,49.70
2023-05-01T07:57:20.540Z,49.80
2023-05-01T07:59:47.877Z,48.94
2023-05-01T08:02:17.583Z,47.47
2023-05-01T08:04:46.208Z,43.08
2023-05-01T08:07:13.075Z,44.22
2023-05-01T08:09:39.962Z,42.30
2023-05-01T08:12:07.157Z,42.01
2023-05-01T08:14:34.074Z,39.67
2023-05-01T08:17:00.924Z,41.32
2023-05-01T08:19:28.121Z,40.19
2023-05-01T08:21:54.969Z,39.11
2023-05-01T08:24:21.812Z,40.66
2023-05-01T08:26:49.044Z,42.51
2023-05-01T08:29:15.966Z,41.02
2023-05-01T08:31:43.948Z,39.78
2023-05-01T08:34:10.991Z,38.27
2023-05-01T08:36:38.373Z,39.14
2023-05-01T08:39:05.466Z,39.62
2023-05-01T08:41:32.968Z,38.79
2023-05-01T08:44:04.291Z,39.96
2023-05-01T08:46:44.825Z,39.50
2023-05-01T08:49:16.812Z,39.56
2023-05-01T08:51:50.097Z,40.73
2023-05-01T08:54:19.912Z,39.82
2023-05-01T08:56:47.627Z,41.06
2023-05-01T08:59:16.018Z,41.48
2023-05-01T09:01:44.500Z,41.73
2023-05-01T09:04:12.177Z,39.97
2023-05-01T09:06:39.589Z,41.71
2023-05-01T09:09:06.746Z,40.81
2023-05-01T09:11:33.775Z,41.22
2023-05-01T09:14:01.894Z,40.61
2023-05-01T09:16:29.814Z,40.91
2023-05-01T09:18:59.457Z,39.35
2023-05-01T09:21:28.376Z,38.64
2023-05-01T09:23:55.284Z,38.24
2023-05-01T09:26:22.089Z,39.63
2023-05-01T09:28:49.021Z,36.97
2023-05-01T09:31:25.672Z,37.39
2023-05-01T09:33:54.728Z,37.37
2023-05-01T09:36:23.716Z,37.39
2023-05-01T09:38:51.266Z,36.69
2023-05-01T09:41:20.972Z,36.07
2023-05-01T09:43:55.557Z,35.22
2023-05-01T09:46:24.621Z,35.37
2023-05-01T09:49:03.381Z,34.55
2023-05-01T09:51:33.096Z,34.29
2023-05-01T09:54:02.612Z,35.34
2023-05-01T09:56:34.461Z,34.02
2023-05-01T09:59:19.641Z,34.09
2023-05-01T10:01:49.474Z,32.62
2023-05-01T10:04:16.491Z,34.14
2023-05-01T10:06:43.805Z,32.40
2023-05-01T10:09:17.842Z,33.04
2023-05-01T10:11:55.878Z,32.22
2023-05-01T10:14:28.253Z,32.77
2023-05-01T10:16:57.979Z,32.22
2023-05-01T10:19:25.307Z,30.86
2023-05-01T10:21:53.573Z,30.73
2023-05-01T10:24:21.004Z,31.57
2023-05-01T10:26:50.096Z,31.94
2023-05-01T10:29:19.541Z,30.59
2023-05-01T10:31:46.642Z,31.14
2023-05-01T10:34:18.322Z,30.46
2023-05-01T10:36:54.893Z,30.97
2023-05-01T10:39:36.278Z,31.01
2023-05-01T10:42:16.653Z,30.80
2023-05-01T10:44:44.291Z,33.30
2023-05-01T10:47:27.902Z,30.76
2023-05-01T10:50:04.561Z,30.64
2023-05-01T10:52:51.671Z,32.02
2023-05-01T10:55:35.308Z,30.98
2023-05-01T10:58:02.292Z,30.92
2023-05-01T11:00:29.161Z,30.88
2023-05-01T11:03:25.529Z,32.04
2023-05-01T11:06:03.125Z,30.27
2023-05-01T11:08:30.464Z,30.80
2023-05-01T11:10:57.364Z,30.93
2023-05-01T11:14:01.698Z,29.94
2023-05-01T11:16:40.755Z,30.56
2023-05-01T11:19:09.802Z,29.26
2023-05-01T11:21:38.946Z,28.25
2023-05-01T11:24:09.331Z,30.96
2023-05-01T11:26:41.188Z,29.52
2023-05-01T11:29:10.501Z,30.60
2023-05-01T11:31:37.901Z,30.39
2023-05-01T11:34:07.227Z,31.97
2023-05-01T11:39:01.069Z,31.55
2023-05-01T11:41:28.537Z,30.30
2023-05-01T11:43:58.262Z,31.05
2023-05-01T11:46:29.633Z,30.12
2023-05-01T11:48:57.710Z,28.33
2023-05-01T11:51:26.848Z,30.05
2023-05-01T11:54:08.088Z,28.84
2023-05-01T11:56:36.836Z,29.15
2023-05-01T11:59:17.225Z,30.13
2023-05-01T12:01:46.057Z,31.50
2023-05-01T12:04:23.222Z,30.66
2023-05-01T12:06:51.456Z,28.38
2023-05-01T12:09:38.643Z,28.86
2023-05-01T12:12:06.051Z,27.84
2023-05-01T12:14:33.255Z,28.49
2023-05-01T12:17:00.377Z,29.91
2023-05-01T12:19:27.286Z,29.17
2023-05-01T12:22:14.466Z,27.94
2023-05-01T12:24:54.353Z,28.82
2023-05-01T12:27:21.473Z,27.63
2023-05-01T12:29:48.435Z,28.50
2023-05-01T12:32:17.007Z,29.70
2023-05-01T12:34:43.939Z,30.74
2023-05-01T12:37:11.230Z,30.58
2023-05-01T12:39:44.786Z,31.06
2023-05-01T12:42:14.320Z,32.24
2023-05-01T12:44:41.442Z,30.94
2023-05-01T12:47:09.878Z,31.40
2023-05-01T12:49:37.800Z,31.96
2023-05-01T12:52:07.561Z,32.88
2023-05-01T12:54:39.871Z,31.98
2023-05-01T12:57:16.662Z,30.62
2023-05-01T12:59:45.787Z,31.76
2023-05-01T13:02:16.253Z,32.21
2023-05-01T13:04:44.198Z,31.16
2023-05-01T13:07:16.686Z,30.16
2023-05-01T13:09:57.943Z,29.27
2023-05-01T13:12:26.822Z,29.79
2023-05-01T13:14:54.625Z,28.54
2023-05-01T13:17:32.294Z,30.88
2023-05-01T13:20:05.096Z,32.09
2023-05-01T13:22:34.242Z,30.52
2023-05-01T13:25:03.965Z,31.17
2023-05-01T13:27:30.892Z,32.20
2023-05-01T13:29:59.904Z,30.80
2023-05-01T13:32:28.440Z,30.43
2023-05-01T13:34:56.204Z,29.83
2023-05-01T13:37:23.247Z,31.21
2023-05-01T13:39:50.087Z,31.49
2023-05-01T13:42:25.897Z,31.29
2023-05-01T13:44:57.485Z,32.00
2023-05-01T13:47:28.999Z,31.29
2023-05-01T13:49:56.730Z,31.59
2023-05-01T13:52:24.552Z,31.40
2023-05-01T13:54:55.993Z,31.72
2023-05-01T13:57:23.221Z,31.76
2023-05-01T13:59:50.064Z,32.83
2023-05-01T14:02:25.303Z,31.01
2023-05-01T14:04:52.446Z,30.59
2023-05-01T14:07:21.079Z,30.60
2023-05-01T14:09:56.038Z,30.51
2023-05-01T14:12:31.369Z,31.00
2023-05-01T14:15:00.394Z,30.44
2023-05-01T14:17:33.378Z,31.06
2023-05-01T14:20:00.868Z,30.75
2023-05-01T14:22:43.774Z,30.45
2023-05-01T14:25:24.702Z,31.26
2023-05-01T14:27:53.799Z,30.29
2023-05-01T14:30:33.725Z,31.80
2023-05-01T14:33:06.794Z,31.70
2023-05-01T14:35:34.781Z,31.75
2023-05-01T14:38:09.165Z,32.38
2023-05-01T14:40:36.109Z,32.32
2023-05-01T14:43:03.664Z,31.86
2023-05-01T14:45:30.938Z,31.83
2023-05-01T14:47:58.095Z,31.13
2023-05-01T14:50:25.584Z,31.08
2023-05-01T14:52:57.426Z,31.05
2023-05-01T14:55:29.564Z,30.74
2023-05-01T14:57:57.102Z,30.10
2023-05-01T15:00:25.090Z,30.45
2023-05-01T15:02:52.252Z,29.81
2023-05-01T15:05:19.249Z,30.67
2023-05-01T15:07:46.894Z,28.98
2023-05-01T15:10:13.851Z,29.58
2023-05-01T15:12:40.866Z,30.55
2023-05-01T15:15:09.665Z,30.71
2023-05-01T15:17:36.790Z,30.61
2023-05-01T15:20:03.942Z,30.82
2023-05-01T15:22:31.373Z,30.66
2023-05-01T15:24:58.452Z,31.03
2023-05-01T15:27:26.666Z,31.77
2023-05-01T15:29:53.564Z,30.88
2023-05-01T15:32:20.405Z,32.05
2023-05-01T15:34:47.360Z,31.80
2023-05-01T15:37:14.272Z,31.37
2023-05-01T15:39:41.129Z,31.22
2023-05-01T15:42:08.157Z,30.70
2023-05-01T15:44:34.995Z,30.63
2023-05-01T15:47:02.040Z,31.76
2023-05-01T15:49:29.010Z,31.91
2023-05-01T15:51:56.161Z,31.85
2023-05-01T15:54:24.674Z,31.75
2023-05-01T15:56:51.707Z,31.85
2023-05-01T15:59:18.509Z,31.38
2023-05-01T16:01:45.536Z,31.47
2023-05-01T16:04:12.460Z,31.95
2023-05-01T16:06:40.959Z,32.44
2023-05-01T16:09:08.011Z,33.16
2023-05-01T16:11:35.788Z,33.05
2023-05-01T16:14:02.932Z,33.08
2023-05-01T16:16:30.129Z,34.39
2023-05-01T16:18:58.889Z,34.07
2023-05-01T16:21:27.322Z,34.66
2023-05-01T16:23:57.505Z,35.51
2023-05-01T16:26:28.386Z,36.57
2023-05-01T16:29:13.600Z,35.99
2023-05-01T16:31:47.644Z,36.55
2023-05-01T16:34:18.142Z,36.29
2023-05-01T16:36:46.905Z,36.74
2023-05-01T16:39:18.868Z,36.57
2023-05-01T16:41:50.576Z,36.78
2023-05-01T16:44:18.506Z,38.99
2023-05-01T16:46:56.210Z,38.35
2023-05-01T16:49:23.725Z,38.77
2023-05-01T16:51:50.924Z,37.98
2023-05-01T16:54:18.146Z,38.47
2023-05-01T16:56:45.000Z,38.81
2023-05-01T16:59:11.908Z,38.88
2023-05-01T17:01:38.741Z,38.94
2023-05-01T17:04:06.240Z,39.12
2023-05-01T17:06:33.494Z,39.02
2023-05-01T17:09:00.571Z,39.06
2023-05-01T17:11:29.122Z,39.33
2023-05-01T17:13:57.202Z,39.35
2023-05-01T17:16:24.177Z,39.95
2023-05-01T17:18:51.057Z,39.90
2023-05-01T17:21:18.609Z,40.08
2023-05-01T17:23:45.665Z,40.34
2023-05-01T17:26:15.949Z,39.83
2023-05-01T17:28:45.369Z,40.30
2023-05-01T17:31:12.341Z,40.03
2023-05-01T17:33:39.263Z,41.15
2023-05-01T17:36:06.318Z,40.60
2023-05-01T17:38:33.171Z,40.81
2023-05-01T17:41:00.115Z,40.70
2023-05-01T17:43:27.035Z,41.64
2023-05-01T17:45:53.931Z,40.53
2023-05-01T17:48:20.863Z,38.92
2023-05-01T17:50:47.761Z,38.98
2023-05-01T17:53:14.670Z,39.10
2023-05-01T17:55:41.732Z,39.05
2023-05-01T17:58:08.618Z,38.28
2023-05-01T18:00:35.780Z,38.19
2023-05-01T18:03:02.958Z,37.67
2023-05-01T18:05:30.042Z,39.14
2023-05-01T18:07:56.916Z,37.60
2023-05-01T18:10:23.941Z,37.34
2023-05-01T18:12:51.424Z,37.73
2023-05-01T18:15:22.586Z,37.50
2023-05-01T18:17:50.065Z,38.60
2023-05-01T18:20:17.277Z,38.03
2023-05-01T18:22:44.471Z,36.36
2023-05-01T18:25:11.586Z,37.40
2023-05-01T18:27:38.956Z,37.15
2023-05-01T18:30:06.418Z,37.40
2023-05-01T18:32:46.300Z,37.22
2023-05-01T18:35:15.786Z,37.03
2023-05-01T18:37:44.135Z,37.46
2023-05-01T18:40:11.713Z,37.47
2023-05-01T18:42:41.275Z,36.73
2023-05-01T18:45:10.056Z,37.84
2023-05-01T18:47:37.021Z,38.85
2023-05-01T18:50:05.211Z,38.20
2023-05-01T18:52:32.166Z,39.07
2023-05-01T18:54:59.288Z,38.30
2023-05-01T18:57:27.774Z,39.15
2023-05-01T18:59:54.585Z,39.03
2023-05-01T19:02:21.601Z,39.26
2023-05-01T19:04:57.415Z,40.65
2023-05-01T19:07:26.619Z,40.25
2023-05-01T19:09:53.688Z,38.91
2023-05-01T19:12:20.653Z,39.17
2023-05-01T19:14:47.492Z,39.92
2023-05-01T19:17:14.362Z,38.56
2023-05-01T19:19:41.153Z,38.66
2023-05-01T19:22:08.110Z,39.82
2023-05-01T19:24:34.943Z,39.72
2023-05-01T19:27:03.501Z,40.12
2023-05-01T19:29:33.710Z,39.26
2023-05-01T19:32:00.713Z,39.23
2023-05-01T19:34:28.384Z,39.30
2023-05-01T19:36:57.116Z,41.56
2023-05-01T19:39:24.262Z,41.24
2023-05-01T19:41:51.356Z,42.19
2023-05-01T19:44:18.320Z,43.18
2023-05-01T19:46:45.276Z,42.81
2023-05-01T19:49:12.497Z,42.94
2023-05-01T19:51:39.288Z,43.88
2023-05-01T19:54:06.150Z,43.64
2023-05-01T19:56:32.992Z,43.97
2023-05-01T19:58:59.851Z,44.25
2023-05-01T20:01:29.845Z,44.25
2023-05-01T20:03:57.032Z,44.38
2023-05-01T20:06:23.964Z,45.13
2023-05-01T20:08:50.918Z,44.14
2023-05-01T20:11:17.908Z,43.87
2023-05-01T20:13:45.558Z,43.77
2023-05-01T20:16:12.508Z,45.45
2023-05-01T20:18:39.484Z,45.68
2023-05-01T20:21:07.585Z,46.22
2023-05-01T20:23:35.188Z,45.79
2023-05-01T20:26:02.094Z,46.55
2023-05-01T20:28:29.329Z,45.93
2023-05-01T20:30:56.787Z,45.93
2023-05-01T20:33:23.781Z,46.24
2023-05-01T20:35:51.462Z,48.25
2023-05-01T20:38:18.450Z,47.16
2023-05-01T20:40:45.282Z,47.42
2023-05-01T20:43:12.126Z,48.63
2023-05-01T20:45:39.534Z,48.44
2023-05-01T20:48:06.567Z,47.84
2023-05-01T20:50:33.521Z,48.05
2023-05-01T20:53:00.376Z,49.52
2023-05-01T20:55:28.253Z,50.13
2023-05-01T20:57:56.052Z,49.34
2023-05-01T21:00:22.941Z,49.78
2023-05-01T21:02:52.038Z,49.41
2023-05-01T21:05:19.018Z,49.79
2023-05-01T21:07:45.853Z,49.81
2023-05-01T21:10:14.557Z,50.30
2023-05-01T21:12:41.660Z,49.48
2023-05-01T21:15:09.215Z,49.41
2023-05-01T21:17:37.108Z,48.98
2023-05-01T21:20:10.177Z,49.33
2023-05-01T21:22:37.041Z,49.86
2023-05-01T21:25:04.354Z,49.72
2023-05-01T21:27:31.280Z,48.68
2023-05-01T21:29:59.549Z,49.12
2023-05-01T21:32:33.671Z,51.07
2023-05-01T21:35:01.089Z,52.63
2023-05-01T21:37:29.327Z,52.93
2023-05-01T21:39:59.490Z,52.84
2023-05-01T21:42:34.580Z,53.23
2023-05-01T21:45:07.018Z,53.25
2023-05-01T21:47:39.441Z,52.94
2023-05-01T21:50:09.837Z,53.46
2023-05-01T21:52:36.798Z,53.74
2023-05-01T21:55:08.798Z,53.99
2023-05-01T21:57:37.015Z,53.25
2023-05-01T22:00:09.426Z,53.34
2023-05-01T22:02:46.637Z,53.92
2023-05-01T22:05:15.515Z,53.85
2023-05-01T22:07:45.141Z,53.42
2023-05-01T22:10:14.428Z,52.62
2023-05-01T22:12:41.670Z,54.16
2023-05-01T22:15:12.725Z,53.00
2023-05-01T22:17:39.975Z,53.94
2023-05-01T22:20:07.793Z,54.87
2023-05-01T22:22:35.343Z,54.74
2023-05-01T22:25:03.086Z,54.75
2023-05-01T22:27:30.409Z,54.91
2023-05-01T22:29:57.673Z,55.23
2023-05-01T22:32:24.968Z,54.82
2023-05-01T22:34:51.848Z,55.15
2023-05-01T22:37:19.722Z,56.02
2023-05-01T22:39:46.666Z,54.57
2023-05-01T22:42:13.925Z,54.41
2023-05-01T22:44:41.040Z,53.93
2023-05-01T22:47:08.018Z,53.39
2023-05-01T22:49:34.821Z,53.02
2023-05-01T22:52:02.384Z,54.12
2023-05-01T22:54:29.271Z,53.88
2023-05-01T22:56:56.333Z,53.19
2023-05-01T22:59:23.285Z,54.98
2023-05-01T23:01:50.326Z,54.22
2023-05-01T23:04:17.372Z,54.01
2023-05-01T23:06:44.791Z,54.32
2023-05-01T23:09:12.085Z,54.45
2023-05-01T23:11:41.506Z,55.45
2023-05-01T23:14:08.372Z,55.70
2023-05-01T23:16:42.294Z,55.94
2023-05-01T23:19:23.579Z,55.59
2023-05-01T23:22:02.675Z,55.82
2023-05-01T23:24:51.138Z,58.09
2023-05-01T23:27:19.555Z,56.18
2023-05-01T23:29:54.863Z,56.20
2023-05-01T23:32:27.926Z,56.46
2023-05-01T23:34:55.935Z,56.11
2023-05-01T23:37:22.758Z,56.28
2023-05-01T23:39:49.611Z,55.58
2023-05-01T23:42:16.460Z,55.23
2023-05-01T23:44:43.306Z,55.32
2023-05-01T23:47:10.700Z,56.89
2023-05-01T23:49:38.229Z,55.86
2023-05-01T23:52:06.785Z,56.17
2023-05-01T23:54:33.685Z,55.82
2023-05-01T23:57:00.929Z,55.47
2023-05-01T23:59:27.956Z,56.21
